Butterfly, Kentucky
Current Conditions -  °F | °C
As of 4:53 PM on Monday 24 Nov 2014 (Local Time) from KJKL Reporting Station
Clear Clear  
Wind Chill: 60°   Ceiling: Unl
Heat Index: 60°   Visibility: 10mi
Dew Point: 39°   Wind: 6mph
Humidity: 46%   Direction: NA
Pressure: 29.75"   Gusts: 18mph
Location:  37.3117°N, 83.2191°W
Report Text: KJKL 242153Z AUTO VRB05G16KT 10SM CLR 16/04 A2975 RMK AO2 SLP067 T01560039
Loading
Personal Weather Stations






























Interactive Weather Map New forecast layout! Learn more

10-Day Weather Forecast

Advertisements
Track Severe Weather on mobile